Annandale, NJ (08801)

8:52 AM EDT on July 26, 2016 (GMT -0400)
Regional Road | | Change Station

Elev 387 ft 40.63 °N, 74.89 °W | Updated 1 minute ago

Clear
Clear
73.3 °F
Feels Like 73.3 °F
N
0.0
Wind Variable Wind from SE
Gusts 8.0 mph

Today
High -- | Low -- °F
--% Chance of Precip.
Yesterday
High -- | Low -- °F
Precip. -- in
Pressure 29.92 in
Visibility 9.0 miles
Clouds Clear
Dew Point 73 °F
Humidity 98%
Rainfall 0.05 in
Snow Depth Not available.
5:51 AM 8:20 PM
Waning Gibbous, 55% visible
METAR KSMQ 261153Z AUTO 34003KT 9SM CLR 23/21 A2992 RMK AO2 SLP130 70081 T02330206 10233 20189 51013
Pressure 29.92 in
Visibility 9.0 miles
Clouds Clear
Dew Point 73 °F
Humidity 98%
Rainfall 0.05 in
Snow Depth Not available.
5:51 AM 8:20 PM
Waning Gibbous, 55% visible
METAR KSMQ 261153Z AUTO 34003KT 9SM CLR 23/21 A2992 RMK AO2 SLP130 70081 T02330206 10233 20189 51013

10-Day Weather Forecast

Almanac

Astronomy

Jul. 26, 2016 Rise Set
Actual Time
Civil Twilight
Nautical Twilight
Astronomical Twilight
Moon
Length of Visible Light
Length of Day
Tomorrow will be .
, % of the Moon is Illuminated

Today's Extremes

State Highs State Lows

Community

WunderPhotos

Upload Photos

1,927,581 photos uploaded!

WunderBlog® & News

Nearby

Air Quality

  Air Quality AQ Index Pollutant
Not available.

Snow Depth

Station Depth Elevation

Earthquake Activity

City Distance Mag. Time & Date
Minimum magnitude displayed is 2.5.

Coastal Water Temperatures

Place Temperature

Stations

Nearby Weather Stations

Station Location Temp. Windchill Dew Point Humidity Wind Precip. Elev Updated Type
                   

Watches & Warnings

There are currently no watches in effect.